Terminal Aerodrome Forecast
Issued by NWS

Home | Current Version | Previous Version | Text Only | Print | Product List | Glossary On
Versions: 1 2 3 4 5 6 7 8 9 10 11 12 13 14 15 16 17 18 19
673
FTUS43 KAPX 281838 AAA
TAFAPN
TAF AMD
KAPN 281838Z 2819/2918 04011KT P6SM FEW035 SCT090
     FM282000 05012G18KT P6SM SCT040 BKN090
     FM290100 03009KT P6SM SCT090
     FM291400 07012G21KT P6SM SCT120
     FM291500 07014G23KT P6SM SCT020=

USA.gov is the U.S. government's official web portal to all federal, state and local government web resources and services.